createdAt,value
2018-04-09T00:00:20.286Z,14.64
2018-04-09T00:01:20.447Z,14.59
2018-04-09T00:02:20.581Z,14.63
2018-04-09T00:03:20.720Z,14.40
2018-04-09T00:04:20.863Z,14.27
2018-04-09T00:05:21.008Z,14.26
2018-04-09T00:06:21.174Z,14.05
2018-04-09T00:07:21.323Z,14.00
2018-04-09T00:08:21.458Z,14.00
2018-04-09T00:09:21.595Z,13.97
2018-04-09T00:10:21.735Z,13.88
2018-04-09T00:11:21.872Z,14.00
2018-04-09T00:12:22.013Z,13.94
2018-04-09T00:13:22.153Z,14.15
2018-04-09T00:14:22.294Z,14.09
2018-04-09T00:15:22.448Z,14.08
2018-04-09T00:16:22.579Z,14.21
2018-04-09T00:17:22.838Z,14.28
2018-04-09T00:19:55.538Z,14.15
2018-04-09T00:20:55.674Z,14.30
2018-04-09T00:21:55.811Z,14.26
2018-04-09T00:22:55.966Z,14.22
2018-04-09T00:23:56.095Z,14.26
2018-04-09T00:24:56.234Z,14.26
2018-04-09T00:25:56.361Z,14.26
2018-04-09T00:26:56.525Z,14.28
2018-04-09T00:27:56.662Z,14.23
2018-04-09T00:28:56.796Z,14.28
2018-04-09T00:29:56.977Z,14.30
2018-04-09T00:30:57.110Z,14.26
2018-04-09T00:31:57.273Z,14.30
2018-04-09T00:32:57.405Z,14.31
2018-04-09T00:33:57.541Z,14.13
2018-04-09T00:34:57.681Z,14.09
2018-04-09T00:35:57.873Z,14.26
2018-04-09T00:38:30.675Z,14.12
2018-04-09T00:39:30.814Z,14.03
2018-04-09T00:40:30.956Z,14.11
2018-04-09T00:41:31.096Z,14.13
2018-04-09T00:42:31.232Z,14.05
2018-04-09T00:43:31.370Z,13.97
2018-04-09T00:44:31.543Z,13.85
2018-04-09T00:45:31.674Z,13.94
2018-04-09T00:46:31.815Z,13.85
2018-04-09T00:47:31.979Z,14.00
2018-04-09T00:48:32.118Z,13.96
2018-04-09T00:49:32.253Z,14.01
2018-04-09T00:50:32.392Z,13.96
2018-04-09T00:51:32.532Z,13.98
2018-04-09T00:52:32.669Z,14.03
2018-04-09T00:53:32.808Z,13.97
2018-04-09T00:54:32.976Z,14.01
2018-04-09T00:55:33.106Z,13.90
2018-04-09T00:56:33.248Z,14.01
2018-04-09T00:57:33.407Z,13.88
2018-04-09T00:58:33.530Z,13.83
2018-04-09T00:59:33.693Z,13.83
2018-04-09T01:00:33.826Z,13.68
2018-04-09T01:01:33.963Z,13.72
2018-04-09T01:02:34.106Z,13.75
2018-04-09T01:03:34.249Z,13.71
2018-04-09T01:04:34.384Z,13.72
2018-04-09T01:05:34.518Z,13.65
2018-04-09T01:06:34.668Z,13.72
2018-04-09T01:07:34.816Z,13.58
2018-04-09T01:08:34.960Z,13.73
2018-04-09T01:09:35.097Z,13.73
2018-04-09T01:10:35.237Z,13.67
2018-04-09T01:11:35.375Z,13.72
2018-04-09T01:12:35.521Z,13.68
2018-04-09T01:13:35.649Z,13.72
2018-04-09T01:14:35.785Z,13.73
2018-04-09T01:15:35.928Z,13.79
2018-04-09T01:16:36.058Z,13.78
2018-04-09T01:17:36.203Z,13.75
2018-04-09T01:18:36.373Z,13.72
2018-04-09T01:19:36.491Z,13.71
2018-04-09T01:20:36.621Z,13.73
2018-04-09T01:21:36.873Z,13.71
2018-04-09T01:22:36.891Z,13.83
2018-04-09T01:23:37.033Z,13.80
2018-04-09T01:24:37.178Z,13.72
2018-04-09T01:25:37.319Z,13.73
2018-04-09T01:26:37.457Z,13.78
2018-04-09T01:27:37.604Z,13.72
2018-04-09T01:28:37.737Z,13.72
2018-04-09T01:29:37.871Z,13.53
2018-04-09T01:30:38.018Z,13.30
2018-04-09T01:31:38.151Z,13.20
2018-04-09T01:32:38.287Z,13.23
2018-04-09T01:33:38.425Z,13.24
2018-04-09T01:34:38.556Z,13.17
2018-04-09T01:35:38.696Z,13.38
2018-04-09T01:36:38.840Z,13.27
2018-04-09T01:37:38.977Z,13.35
2018-04-09T01:38:39.117Z,13.23
2018-04-09T01:39:39.262Z,13.30
2018-04-09T01:40:39.388Z,13.39
2018-04-09T01:41:39.529Z,13.40
2018-04-09T01:42:39.671Z,13.51
2018-04-09T01:43:39.807Z,13.26
2018-04-09T01:44:39.948Z,13.09
2018-04-09T01:45:40.089Z,12.99
2018-04-09T01:46:40.234Z,13.06
2018-04-09T01:47:40.371Z,13.08
2018-04-09T01:48:40.510Z,13.21
2018-04-09T01:49:40.696Z,13.08
2018-04-09T01:50:40.818Z,13.06
2018-04-09T01:51:40.954Z,12.84
2018-04-09T01:52:41.089Z,12.15
2018-04-09T01:53:41.230Z,11.97
2018-04-09T01:54:41.367Z,12.05
2018-04-09T01:55:41.503Z,12.23
2018-04-09T01:56:41.646Z,12.25
2018-04-09T01:57:41.810Z,12.33
2018-04-09T01:58:41.951Z,12.40
2018-04-09T01:59:42.081Z,12.25
2018-04-09T02:00:42.216Z,12.25
2018-04-09T02:01:42.374Z,12.26
2018-04-09T02:02:42.555Z,12.13
2018-04-09T02:03:42.692Z,12.11
2018-04-09T02:04:42.845Z,12.30
2018-04-09T02:05:42.979Z,12.26
2018-04-09T02:06:43.122Z,12.43
2018-04-09T02:07:43.262Z,12.48
2018-04-09T02:08:43.417Z,12.59
2018-04-09T02:09:43.548Z,12.69
2018-04-09T02:10:43.689Z,12.69
2018-04-09T02:11:43.826Z,12.79
2018-04-09T02:12:43.984Z,12.88
2018-04-09T02:13:44.114Z,12.90
2018-04-09T02:14:44.254Z,12.90
2018-04-09T02:15:44.391Z,13.04
2018-04-09T02:16:44.557Z,13.02
2018-04-09T02:17:44.705Z,13.05
2018-04-09T02:18:44.840Z,12.91
2018-04-09T02:19:44.981Z,12.99
2018-04-09T02:20:45.146Z,12.95
2018-04-09T02:21:45.297Z,12.95
2018-04-09T02:22:45.435Z,12.96
2018-04-09T02:23:45.571Z,13.11
2018-04-09T02:24:45.761Z,13.02
2018-04-09T02:25:45.891Z,13.04
2018-04-09T02:26:46.027Z,12.95
2018-04-09T02:27:46.168Z,13.06
2018-04-09T02:28:46.319Z,13.14
2018-04-09T02:29:46.465Z,13.01
2018-04-09T02:30:46.600Z,12.95
2018-04-09T02:31:46.738Z,12.88
2018-04-09T02:32:47.464Z,12.96
2018-04-09T02:33:47.001Z,12.90
2018-04-09T02:34:47.141Z,12.87
2018-04-09T02:35:47.279Z,12.83
2018-04-09T02:36:47.421Z,12.79
2018-04-09T02:37:47.554Z,12.81
2018-04-09T02:38:47.705Z,12.80
2018-04-09T02:39:47.841Z,12.80
2018-04-09T02:40:47.975Z,12.90
2018-04-09T02:41:48.117Z,12.86
2018-04-09T02:42:48.270Z,12.88
2018-04-09T02:43:48.398Z,12.83
2018-04-09T02:44:48.536Z,12.91
2018-04-09T02:45:48.664Z,12.83
2018-04-09T02:46:48.803Z,12.86
2018-04-09T02:47:48.941Z,12.93
2018-04-09T02:48:49.074Z,12.90
2018-04-09T02:49:49.213Z,13.04
2018-04-09T02:50:49.355Z,12.98
2018-04-09T02:51:49.493Z,12.88
2018-04-09T02:52:49.633Z,12.98
2018-04-09T02:53:49.768Z,12.87
2018-04-09T02:54:49.926Z,12.79
2018-04-09T02:55:50.044Z,12.93
2018-04-09T02:56:50.182Z,12.88
2018-04-09T02:57:50.320Z,12.87
2018-04-09T02:58:50.455Z,12.77
2018-04-09T02:59:50.597Z,12.80
2018-04-09T03:00:50.732Z,12.90
2018-04-09T03:01:50.876Z,12.84
2018-04-09T03:02:51.012Z,12.83
2018-04-09T03:03:51.157Z,12.83
2018-04-09T03:04:51.326Z,12.79
2018-04-09T03:05:51.461Z,12.66
2018-04-09T03:06:51.601Z,12.66
2018-04-09T03:07:51.740Z,12.62
2018-04-09T03:08:51.880Z,12.69
2018-04-09T03:09:52.017Z,12.66
2018-04-09T03:10:52.171Z,12.71
2018-04-09T03:11:52.308Z,12.51
2018-04-09T03:12:52.446Z,12.55
2018-04-09T03:13:52.638Z,12.61
2018-04-09T03:14:52.674Z,12.53
2018-04-09T03:15:52.804Z,12.63
2018-04-09T03:16:52.949Z,12.63
2018-04-09T03:17:53.086Z,12.63
2018-04-09T03:18:53.221Z,12.65
2018-04-09T03:19:53.352Z,12.54
2018-04-09T03:20:53.493Z,12.47
2018-04-09T03:21:53.631Z,12.43
2018-04-09T03:22:53.809Z,12.50
2018-04-09T03:23:53.939Z,12.62
2018-04-09T03:24:54.078Z,12.61
2018-04-09T03:25:54.220Z,12.54
2018-04-09T03:26:54.378Z,12.40
2018-04-09T03:27:54.508Z,12.54
2018-04-09T03:28:54.648Z,12.51
2018-04-09T03:29:54.803Z,12.58
2018-04-09T03:30:54.932Z,12.50
2018-04-09T03:31:55.069Z,12.44
2018-04-09T03:32:55.240Z,12.55
2018-04-09T03:33:55.389Z,12.46
2018-04-09T03:34:55.513Z,12.48
2018-04-09T03:35:55.680Z,12.51
2018-04-09T03:36:55.810Z,12.47
2018-04-09T03:37:55.945Z,12.46
2018-04-09T03:38:56.129Z,12.47
2018-04-09T03:39:56.244Z,12.47
2018-04-09T03:40:56.380Z,12.38
2018-04-09T03:41:56.540Z,12.43
2018-04-09T03:42:56.676Z,12.44
2018-04-09T03:43:56.813Z,12.33
2018-04-09T03:44:56.959Z,12.46
2018-04-09T03:45:57.096Z,12.38
2018-04-09T03:46:57.232Z,12.51
2018-04-09T03:47:57.372Z,12.51
2018-04-09T03:48:57.504Z,12.46
2018-04-09T03:49:57.645Z,12.43
2018-04-09T03:50:57.784Z,12.47
2018-04-09T03:51:57.921Z,12.40
2018-04-09T03:52:58.062Z,12.41
2018-04-09T03:53:58.197Z,12.30
2018-04-09T03:54:58.338Z,12.38
2018-04-09T03:55:58.475Z,12.40
2018-04-09T03:56:58.612Z,12.35
2018-04-09T03:57:58.825Z,12.33
2018-04-09T03:58:58.854Z,12.33
2018-04-09T03:59:58.994Z,12.23
2018-04-09T04:00:59.132Z,12.28
2018-04-09T04:01:59.279Z,12.41
2018-04-09T04:02:59.428Z,12.26
2018-04-09T04:03:59.561Z,12.23
2018-04-09T04:04:59.704Z,12.23
2018-04-09T04:05:59.837Z,12.07
2018-04-09T04:06:59.971Z,12.00
2018-04-09T04:08:00.118Z,11.95
2018-04-09T04:09:00.302Z,11.88
2018-04-09T04:10:00.395Z,11.96
2018-04-09T04:11:00.536Z,11.79
2018-04-09T04:12:00.663Z,11.80
2018-04-09T04:13:00.801Z,11.67
2018-04-09T04:14:00.944Z,11.71
2018-04-09T04:15:01.078Z,11.76
2018-04-09T04:16:01.214Z,11.82
2018-04-09T04:17:01.351Z,11.85
2018-04-09T04:18:01.485Z,11.80
2018-04-09T04:19:01.621Z,11.82
2018-04-09T04:20:01.762Z,11.97
2018-04-09T04:21:01.906Z,11.93
2018-04-09T04:22:02.040Z,11.97
2018-04-09T04:23:02.187Z,11.99
2018-04-09T04:24:02.330Z,12.04
2018-04-09T04:25:02.479Z,12.11
2018-04-09T04:26:02.604Z,12.17
2018-04-09T04:27:02.774Z,12.10
2018-04-09T04:28:02.909Z,12.18
2018-04-09T04:29:03.072Z,12.17
2018-04-09T04:30:03.205Z,12.18
2018-04-09T04:31:03.339Z,12.15
2018-04-09T04:32:03.508Z,12.25
2018-04-09T04:33:03.629Z,12.18
2018-04-09T04:34:03.770Z,12.25
2018-04-09T04:35:03.907Z,12.26
2018-04-09T04:36:04.066Z,12.25
2018-04-09T04:37:04.204Z,12.28
2018-04-09T04:38:04.339Z,12.30
2018-04-09T04:39:04.489Z,12.18
2018-04-09T04:40:04.625Z,12.18
2018-04-09T04:41:04.763Z,12.21
2018-04-09T04:42:05.007Z,12.23
2018-04-09T04:43:05.010Z,12.23
2018-04-09T04:44:05.163Z,12.26
2018-04-09T04:45:05.290Z,12.22
2018-04-09T04:46:05.434Z,12.28
2018-04-09T04:47:05.565Z,12.30
2018-04-09T04:48:05.719Z,12.15
2018-04-09T04:49:05.849Z,12.25
2018-04-09T04:50:05.987Z,12.18
2018-04-09T04:51:06.124Z,12.15
2018-04-09T04:52:06.277Z,12.21
2018-04-09T04:53:06.409Z,12.25
2018-04-09T04:54:06.548Z,12.23
2018-04-09T04:55:06.700Z,12.21
2018-04-09T04:56:06.872Z,12.17
2018-04-09T04:57:07.007Z,12.10
2018-04-09T04:58:07.141Z,12.11
2018-04-09T04:59:07.303Z,12.07
2018-04-09T05:00:07.436Z,11.97
2018-04-09T05:01:07.580Z,12.00
2018-04-09T05:02:07.727Z,12.13
2018-04-09T05:03:07.897Z,12.08
2018-04-09T05:04:08.051Z,12.00
2018-04-09T05:05:08.183Z,12.00
2018-04-09T05:06:08.333Z,11.99
2018-04-09T05:07:08.504Z,12.03
2018-04-09T05:08:08.632Z,12.10
2018-04-09T05:09:08.766Z,12.07
2018-04-09T05:10:08.929Z,12.10
2018-04-09T05:11:09.058Z,12.05
2018-04-09T05:12:09.205Z,12.04
2018-04-09T05:13:09.336Z,12.03
2018-04-09T05:14:09.484Z,11.93
2018-04-09T05:15:09.614Z,11.97
2018-04-09T05:16:09.753Z,11.84
2018-04-09T05:17:09.892Z,11.93
2018-04-09T05:18:10.031Z,11.87
2018-04-09T05:19:10.169Z,11.85
2018-04-09T05:20:10.308Z,11.97
2018-04-09T05:21:10.442Z,11.95
2018-04-09T05:22:10.600Z,11.97
2018-04-09T05:23:10.737Z,11.87
2018-04-09T05:24:10.872Z,11.99
2018-04-09T05:25:11.013Z,11.93
2018-04-09T05:26:11.155Z,12.00
2018-04-09T05:27:11.294Z,12.11
2018-04-09T05:28:11.429Z,12.08
2018-04-09T05:29:11.571Z,12.11
2018-04-09T05:30:11.726Z,12.11
2018-04-09T05:31:11.852Z,12.08
2018-04-09T05:32:11.992Z,11.97
2018-04-09T05:33:12.131Z,12.07
2018-04-09T05:34:12.278Z,12.08
2018-04-09T05:35:12.694Z,12.11
2018-04-09T05:36:12.476Z,12.13
2018-04-09T05:37:12.607Z,12.21
2018-04-09T05:38:12.745Z,12.21
2018-04-09T05:39:12.888Z,12.26
2018-04-09T05:40:13.023Z,12.29
2018-04-09T05:41:13.159Z,12.38
2018-04-09T05:42:13.297Z,12.41
2018-04-09T05:43:13.459Z,12.40
2018-04-09T05:44:13.576Z,12.38
2018-04-09T05:45:13.717Z,12.36
2018-04-09T05:46:13.853Z,12.46
2018-04-09T05:47:14.008Z,12.41
2018-04-09T05:48:14.145Z,12.46
2018-04-09T05:49:14.274Z,12.35
2018-04-09T05:50:14.411Z,12.41
2018-04-09T05:51:14.574Z,12.40
2018-04-09T05:52:14.717Z,12.41
2018-04-09T05:53:14.847Z,12.51
2018-04-09T05:54:14.984Z,12.48
2018-04-09T05:55:15.137Z,12.48
2018-04-09T05:56:15.270Z,12.43
2018-04-09T05:57:15.405Z,12.44
2018-04-09T05:58:15.563Z,12.51
2018-04-09T05:59:15.686Z,12.47
2018-04-09T06:00:15.825Z,12.41
2018-04-09T06:01:15.967Z,12.51
2018-04-09T06:02:16.126Z,12.59
2018-04-09T06:03:16.249Z,12.55
2018-04-09T06:04:16.389Z,12.54
2018-04-09T06:05:16.530Z,12.63
2018-04-09T06:06:16.709Z,12.55
2018-04-09T06:07:16.855Z,12.61
2018-04-09T06:08:16.989Z,12.62
2018-04-09T06:09:17.127Z,12.62
2018-04-09T06:10:17.274Z,12.61
2018-04-09T06:11:17.411Z,12.65
2018-04-09T06:12:17.546Z,12.66
2018-04-09T06:13:17.690Z,12.66
2018-04-09T06:14:17.832Z,12.69
2018-04-09T06:15:17.965Z,12.73
2018-04-09T06:16:18.162Z,12.80
2018-04-09T06:17:18.249Z,12.88
2018-04-09T06:18:18.383Z,12.93
2018-04-09T06:19:19.195Z,12.81
2018-04-09T06:20:18.720Z,12.98
2018-04-09T06:21:18.892Z,12.95
2018-04-09T06:22:19.082Z,12.91
2018-04-09T06:23:19.092Z,12.99
2018-04-09T06:24:19.227Z,12.99
2018-04-09T06:25:19.372Z,13.02
2018-04-09T06:26:19.522Z,12.88
2018-04-09T06:27:19.665Z,12.93
2018-04-09T06:28:19.798Z,12.91
2018-04-09T06:29:19.939Z,12.96
2018-04-09T06:30:20.068Z,12.90
2018-04-09T06:31:20.215Z,13.06
2018-04-09T06:32:20.356Z,13.04
2018-04-09T06:33:20.494Z,13.06
2018-04-09T06:34:20.633Z,13.16
2018-04-09T06:35:20.769Z,13.06
2018-04-09T06:36:20.912Z,13.11
2018-04-09T06:37:21.049Z,13.02
2018-04-09T06:38:21.196Z,12.98
2018-04-09T06:39:21.332Z,13.16
2018-04-09T06:40:21.488Z,13.14
2018-04-09T06:41:21.610Z,13.21
2018-04-09T06:42:21.740Z,13.21
2018-04-09T06:43:21.882Z,13.36
2018-04-09T06:44:22.020Z,13.36
2018-04-09T06:45:22.157Z,13.40
2018-04-09T06:46:22.305Z,13.38
2018-04-09T06:47:22.478Z,13.40
2018-04-09T06:48:22.609Z,13.39
2018-04-09T06:49:22.746Z,13.53
2018-04-09T06:50:22.884Z,13.72
2018-04-09T06:51:23.029Z,13.57
2018-04-09T06:52:23.169Z,13.71
2018-04-09T06:53:23.309Z,13.72
2018-04-09T06:54:23.452Z,13.76
2018-04-09T06:55:23.666Z,13.72
2018-04-09T06:56:23.763Z,13.21
2018-04-09T06:57:23.899Z,12.77
2018-04-09T06:58:24.043Z,12.53
2018-04-09T06:59:24.181Z,12.48
2018-04-09T07:00:24.309Z,12.44
2018-04-09T07:01:24.459Z,12.58
2018-04-09T07:02:24.584Z,12.44
2018-04-09T07:03:25.205Z,12.28
2018-04-09T07:04:24.869Z,12.23
2018-04-09T07:05:25.010Z,12.28
2018-04-09T07:06:25.158Z,12.40
2018-04-09T07:07:25.338Z,12.59
2018-04-09T07:08:25.470Z,12.59
2018-04-09T07:09:25.609Z,12.77
2018-04-09T07:10:25.751Z,12.83
2018-04-09T07:11:25.908Z,12.84
2018-04-09T07:12:26.044Z,12.81
2018-04-09T07:13:26.179Z,13.19
2018-04-09T07:14:26.322Z,13.23
2018-04-09T07:15:26.471Z,13.43
2018-04-09T07:16:26.608Z,13.45
2018-04-09T07:17:26.742Z,13.65
2018-04-09T07:18:27.699Z,13.76
2018-04-09T07:19:27.004Z,14.00
2018-04-09T07:20:27.136Z,14.03
2018-04-09T07:21:27.272Z,13.91
2018-04-09T07:22:27.410Z,13.97
2018-04-09T07:23:27.551Z,13.94
2018-04-09T07:24:27.692Z,13.96
2018-04-09T07:25:27.832Z,13.93
2018-04-09T07:26:27.973Z,14.04
2018-04-09T07:27:28.113Z,13.85
2018-04-09T07:28:28.268Z,13.96
2018-04-09T07:29:28.399Z,13.88
2018-04-09T07:30:28.537Z,13.91
2018-04-09T07:31:28.673Z,13.96
2018-04-09T07:32:28.844Z,14.03
2018-04-09T07:33:28.952Z,13.88
2018-04-09T07:34:29.093Z,13.82
2018-04-09T07:35:29.238Z,13.83
2018-04-09T07:36:29.376Z,13.67
2018-04-09T07:37:29.521Z,13.76
2018-04-09T07:38:29.661Z,13.47
2018-04-09T07:39:29.799Z,13.45
2018-04-09T07:40:29.937Z,13.57
2018-04-09T07:41:30.088Z,13.73
2018-04-09T07:42:30.228Z,13.65
2018-04-09T07:43:30.365Z,13.61
2018-04-09T07:44:30.520Z,13.60
2018-04-09T07:45:30.663Z,13.54
2018-04-09T07:46:30.802Z,13.67
2018-04-09T07:47:30.955Z,13.79
2018-04-09T07:48:31.088Z,13.96
2018-04-09T07:49:31.228Z,14.05
2018-04-09T07:50:31.367Z,14.03
2018-04-09T07:51:31.503Z,14.13
2018-04-09T07:52:31.655Z,14.27
2018-04-09T07:53:31.793Z,14.36
2018-04-09T07:54:31.930Z,14.45
2018-04-09T07:55:32.067Z,14.45
2018-04-09T07:56:32.202Z,14.58
2018-04-09T07:57:32.387Z,14.64
2018-04-09T07:58:32.472Z,14.70
2018-04-09T07:59:32.648Z,14.79
2018-04-09T08:00:32.792Z,14.93
2018-04-09T08:01:32.931Z,14.58
2018-04-09T08:02:33.107Z,14.52
2018-04-09T08:03:33.244Z,14.58
2018-04-09T08:04:33.388Z,14.73
2018-04-09T08:05:33.526Z,14.78
2018-04-09T08:06:33.691Z,14.95
2018-04-09T08:07:33.813Z,14.92
2018-04-09T08:08:33.952Z,15.08
2018-04-09T08:09:34.092Z,15.22
2018-04-09T08:10:34.248Z,15.27
2018-04-09T08:11:34.387Z,15.36
2018-04-09T08:12:34.526Z,15.43
2018-04-09T08:13:34.667Z,15.50
2018-04-09T08:14:34.811Z,15.56
2018-04-09T08:15:34.952Z,15.68
2018-04-09T08:16:35.097Z,15.69
2018-04-09T08:17:35.243Z,15.77
2018-04-09T08:18:35.458Z,15.87
2018-04-09T08:19:35.556Z,15.90
2018-04-09T08:20:35.680Z,15.96
2018-04-09T08:21:35.838Z,15.88
2018-04-09T08:22:35.993Z,15.99
2018-04-09T08:23:36.130Z,16.18
2018-04-09T08:24:36.270Z,16.03
2018-04-09T08:25:36.403Z,16.09
2018-04-09T08:26:37.217Z,16.10
2018-04-09T08:27:36.634Z,16.14
2018-04-09T08:28:36.772Z,16.05
2018-04-09T08:29:36.953Z,16.21
2018-04-09T08:30:37.087Z,16.25
2018-04-09T08:31:37.230Z,16.24
2018-04-09T08:32:37.369Z,16.29
2018-04-09T08:33:37.534Z,16.37
2018-04-09T08:34:37.663Z,16.36
2018-04-09T08:35:37.800Z,16.40
2018-04-09T08:36:37.957Z,16.43
2018-04-09T08:37:38.093Z,16.44
2018-04-09T08:38:38.233Z,16.55
2018-04-09T08:39:38.403Z,16.61
2018-04-09T08:40:38.526Z,16.64
2018-04-09T08:41:38.671Z,16.70
2018-04-09T08:42:38.854Z,16.82
2018-04-09T08:43:38.961Z,16.80
2018-04-09T08:44:39.101Z,16.79
2018-04-09T08:45:39.250Z,16.88
2018-04-09T08:46:39.393Z,16.87
2018-04-09T08:47:39.528Z,16.92
2018-04-09T08:48:39.678Z,16.97
2018-04-09T08:49:39.845Z,17.06
2018-04-09T08:50:39.982Z,17.06
2018-04-09T08:51:40.123Z,17.17
2018-04-09T08:52:40.261Z,17.16
2018-04-09T08:53:40.409Z,17.19
2018-04-09T08:54:40.554Z,17.28
2018-04-09T08:55:40.693Z,17.22
2018-04-09T08:56:40.836Z,17.28
2018-04-09T08:57:40.979Z,17.28
2018-04-09T08:58:41.131Z,17.41
2018-04-09T08:59:41.273Z,17.34
2018-04-09T09:00:41.421Z,17.38
2018-04-09T09:01:41.574Z,17.43
2018-04-09T09:02:41.713Z,17.45
2018-04-09T09:03:41.851Z,17.50
2018-04-09T09:04:41.984Z,17.52
2018-04-09T09:05:42.132Z,17.57
2018-04-09T09:06:42.269Z,17.56
2018-04-09T09:07:42.413Z,17.62
2018-04-09T09:08:42.541Z,17.66
2018-04-09T09:09:42.680Z,17.68
2018-04-09T09:10:42.832Z,17.71
2018-04-09T09:11:42.977Z,17.78
2018-04-09T09:12:43.116Z,17.78
2018-04-09T09:13:43.256Z,17.86
2018-04-09T09:14:43.400Z,17.91
2018-04-09T09:15:43.542Z,17.90
2018-04-09T09:16:43.683Z,17.91
2018-04-09T09:17:43.833Z,17.91
2018-04-09T09:18:43.976Z,18.02
2018-04-09T09:19:44.120Z,18.05
2018-04-09T09:20:44.259Z,18.01
2018-04-09T09:21:44.411Z,18.11
2018-04-09T09:22:44.570Z,18.21
2018-04-09T09:23:44.722Z,18.28
2018-04-09T09:24:44.856Z,18.26
2018-04-09T09:25:45.056Z,18.30
2018-04-09T09:26:45.201Z,18.36
2018-04-09T09:27:45.344Z,18.41
2018-04-09T09:28:45.489Z,18.48
2018-04-09T09:29:45.630Z,18.43
2018-04-09T09:30:45.772Z,18.49
2018-04-09T09:31:45.909Z,18.43
2018-04-09T09:32:46.068Z,18.56
2018-04-09T09:33:46.223Z,18.52
2018-04-09T09:34:46.361Z,18.58
2018-04-09T09:35:46.505Z,18.60
2018-04-09T09:36:46.668Z,18.67
2018-04-09T09:37:46.817Z,18.76
2018-04-09T09:38:46.961Z,18.76
2018-04-09T09:39:47.094Z,18.71
2018-04-09T09:40:47.265Z,18.79
2018-04-09T09:41:47.413Z,18.81
2018-04-09T09:42:47.558Z,18.66
2018-04-09T09:43:47.697Z,18.70
2018-04-09T09:44:47.846Z,18.71
2018-04-09T09:45:47.987Z,18.81
2018-04-09T09:46:48.125Z,18.83
2018-04-09T09:47:48.304Z,18.78
2018-04-09T09:48:48.447Z,18.94
2018-04-09T09:49:48.585Z,18.96
2018-04-09T09:50:48.746Z,18.93
2018-04-09T09:51:48.884Z,19.01
2018-04-09T09:52:49.041Z,19.04
2018-04-09T09:53:49.179Z,18.83
2018-04-09T09:54:49.344Z,18.97
2018-04-09T09:55:49.488Z,18.97
2018-04-09T09:56:49.630Z,19.01
2018-04-09T09:57:49.771Z,19.09
2018-04-09T09:58:49.912Z,19.16
2018-04-09T09:59:50.053Z,19.23
2018-04-09T10:00:50.200Z,19.37
2018-04-09T10:01:50.350Z,19.39
2018-04-09T10:02:50.487Z,19.39
2018-04-09T10:03:50.629Z,19.44
2018-04-09T10:04:50.788Z,19.49
2018-04-09T10:05:50.948Z,19.44
2018-04-09T10:06:51.088Z,19.49
2018-04-09T10:07:51.234Z,19.56
2018-04-09T10:08:51.376Z,19.64
2018-04-09T10:09:51.569Z,19.70
2018-04-09T10:10:51.697Z,19.71
2018-04-09T10:11:51.850Z,19.72
2018-04-09T10:12:51.990Z,19.71
2018-04-09T10:13:52.134Z,19.67
2018-04-09T10:14:52.279Z,19.60
2018-04-09T10:15:52.436Z,19.72
2018-04-09T10:16:52.579Z,19.71
2018-04-09T10:17:52.717Z,19.70
2018-04-09T10:18:52.860Z,19.74
2018-04-09T10:19:53.013Z,19.68
2018-04-09T10:20:53.154Z,19.81
2018-04-09T10:21:53.292Z,19.82
2018-04-09T10:22:53.440Z,19.92
2018-04-09T10:23:53.584Z,19.87
2018-04-09T10:24:53.718Z,19.90
2018-04-09T10:25:53.914Z,19.99
2018-04-09T10:26:54.009Z,19.92
2018-04-09T10:27:54.148Z,20.04
2018-04-09T10:28:54.294Z,20.08
2018-04-09T10:29:54.443Z,20.08
2018-04-09T10:30:54.585Z,20.14
2018-04-09T10:31:54.760Z,20.17
2018-04-09T10:32:54.899Z,20.17
2018-04-09T10:33:55.042Z,20.29
2018-04-09T10:34:55.192Z,20.37
2018-04-09T10:35:55.335Z,20.49
2018-04-09T10:36:55.487Z,20.53
2018-04-09T10:37:55.641Z,20.52
2018-04-09T10:38:55.784Z,20.65
2018-04-09T10:39:55.931Z,20.73
2018-04-09T10:40:56.073Z,20.80
2018-04-09T10:41:56.214Z,20.93
2018-04-09T10:42:56.356Z,21.04
2018-04-09T10:43:56.504Z,21.19
2018-04-09T10:44:56.645Z,21.26
2018-04-09T10:45:56.787Z,21.23
2018-04-09T10:46:56.984Z,21.38
2018-04-09T10:47:57.131Z,21.29
2018-04-09T10:48:57.277Z,21.23
2018-04-09T10:49:57.423Z,21.29
2018-04-09T10:50:57.585Z,21.38
2018-04-09T10:51:57.724Z,21.53
2018-04-09T10:52:57.896Z,21.47
2018-04-09T10:53:58.025Z,21.56
2018-04-09T10:54:58.169Z,21.65
2018-04-09T10:55:58.311Z,21.65
2018-04-09T10:56:58.458Z,21.75
2018-04-09T10:57:58.602Z,21.77
2018-04-09T10:58:58.760Z,21.77
2018-04-09T10:59:58.910Z,21.98
2018-04-09T11:00:59.089Z,22.25
2018-04-09T11:01:59.236Z,22.53
2018-04-09T11:02:59.385Z,22.80
2018-04-09T11:03:59.576Z,22.93
2018-04-09T11:04:59.694Z,23.15
2018-04-09T11:05:59.842Z,23.26
2018-04-09T11:06:59.984Z,23.49
2018-04-09T11:08:00.135Z,23.76
2018-04-09T11:09:00.277Z,24.16
2018-04-09T11:10:00.429Z,24.60
2018-04-09T11:11:00.580Z,24.93
2018-04-09T11:12:00.727Z,25.14
2018-04-09T11:13:00.868Z,25.01
2018-04-09T11:14:01.016Z,25.01
2018-04-09T11:15:01.165Z,24.75
2018-04-09T11:16:01.310Z,24.89
2018-04-09T11:17:01.467Z,24.86
2018-04-09T11:18:01.618Z,24.68
2018-04-09T11:19:01.763Z,24.44
2018-04-09T11:20:01.912Z,24.33
2018-04-09T11:21:02.064Z,24.15
2018-04-09T11:22:02.212Z,23.79
2018-04-09T11:23:02.358Z,23.64
2018-04-09T11:24:02.508Z,23.69
2018-04-09T11:25:02.653Z,23.64
2018-04-09T11:26:02.799Z,23.49
2018-04-09T11:27:02.950Z,23.44
2018-04-09T11:28:03.087Z,23.51
2018-04-09T11:29:03.244Z,23.63
2018-04-09T11:30:03.390Z,23.84
2018-04-09T11:31:03.562Z,23.88
2018-04-09T11:32:03.700Z,23.97
2018-04-09T11:33:03.854Z,24.10
2018-04-09T11:34:04.022Z,24.07
2018-04-09T11:35:04.176Z,24.16
2018-04-09T11:36:04.322Z,24.13
2018-04-09T11:37:04.518Z,24.10
2018-04-09T11:38:04.660Z,24.43
2018-04-09T11:39:04.788Z,24.47
2018-04-09T11:40:04.931Z,24.45
2018-04-09T11:41:05.079Z,24.28
2018-04-09T11:42:05.243Z,24.22
2018-04-09T11:43:05.388Z,24.04
2018-04-09T11:44:05.537Z,23.89
2018-04-09T11:45:05.682Z,23.74
2018-04-09T11:46:05.857Z,23.70
2018-04-09T11:47:05.984Z,23.44
2018-04-09T11:48:06.127Z,23.37
2018-04-09T11:49:06.288Z,23.23
2018-04-09T11:50:06.421Z,23.13
2018-04-09T11:51:06.567Z,22.95
2018-04-09T11:52:06.782Z,22.95
2018-04-09T11:53:06.899Z,22.93
2018-04-09T11:54:07.034Z,22.86
2018-04-09T11:55:07.194Z,22.83
2018-04-09T11:56:07.356Z,22.92
2018-04-09T11:57:07.484Z,22.88
2018-04-09T11:58:07.644Z,22.81
2018-04-09T11:59:07.780Z,22.76
2018-04-09T12:00:07.953Z,22.78
2018-04-09T12:01:08.094Z,22.59
2018-04-09T12:02:08.246Z,22.61
2018-04-09T12:03:08.385Z,22.48
2018-04-09T12:04:08.553Z,22.44
2018-04-09T12:05:08.677Z,22.25
2018-04-09T12:06:08.831Z,22.19
2018-04-09T12:07:08.973Z,22.15
2018-04-09T12:08:09.116Z,22.19
2018-04-09T12:09:09.267Z,22.07
2018-04-09T12:10:09.407Z,22.22
2018-04-09T12:11:09.569Z,22.34
2018-04-09T12:12:09.709Z,22.49
2018-04-09T12:13:09.858Z,22.53
2018-04-09T12:14:09.997Z,22.68
2018-04-09T12:15:10.153Z,22.78
2018-04-09T12:16:10.304Z,22.92
2018-04-09T12:17:10.443Z,22.92
2018-04-09T12:18:10.588Z,22.98
2018-04-09T12:19:10.731Z,22.95
2018-04-09T12:20:10.878Z,22.98
2018-04-09T12:21:11.024Z,23.11
2018-04-09T12:22:11.165Z,23.21
2018-04-09T12:23:11.313Z,23.23
2018-04-09T12:24:11.467Z,23.22
2018-04-09T12:25:11.610Z,23.41
2018-04-09T12:26:11.754Z,23.63
2018-04-09T12:27:11.900Z,23.73
2018-04-09T12:28:12.041Z,23.85
2018-04-09T12:29:12.187Z,23.97
2018-04-09T12:30:12.331Z,24.06
2018-04-09T12:31:12.475Z,24.18
2018-04-09T12:32:12.616Z,23.98
2018-04-09T12:33:12.758Z,23.85
2018-04-09T12:34:12.903Z,23.81
2018-04-09T12:35:13.041Z,23.84
2018-04-09T12:36:13.187Z,24.03
2018-04-09T12:37:13.332Z,24.08
2018-04-09T12:38:13.503Z,24.23
2018-04-09T12:39:13.647Z,24.48
2018-04-09T12:40:13.796Z,24.59
2018-04-09T12:41:13.941Z,24.65
2018-04-09T12:42:14.100Z,24.74
2018-04-09T12:43:14.244Z,24.55
2018-04-09T12:44:14.388Z,24.58
2018-04-09T12:45:14.538Z,24.59
2018-04-09T12:46:14.709Z,24.62
2018-04-09T12:47:14.855Z,24.75
2018-04-09T12:48:14.995Z,24.76
2018-04-09T12:49:15.159Z,24.74
2018-04-09T12:50:15.287Z,24.85
2018-04-09T12:51:15.434Z,25.04
2018-04-09T12:52:15.585Z,25.21
2018-04-09T12:53:15.765Z,25.55
2018-04-09T12:54:15.901Z,25.68
2018-04-09T12:55:16.043Z,25.81
2018-04-09T12:56:16.177Z,25.78
2018-04-09T12:57:16.323Z,26.00